createdAt,value
2023-05-08T00:00:47.203Z,75.21
2023-05-08T00:03:35.449Z,75.23
2023-05-08T00:06:23.400Z,75.41
2023-05-08T00:09:11.589Z,75.82
2023-05-08T00:11:59.820Z,75.67
2023-05-08T00:14:48.225Z,75.92
2023-05-08T00:17:36.552Z,75.94
2023-05-08T00:20:24.941Z,76.17
2023-05-08T00:23:16.085Z,76.04
2023-05-08T00:26:04.610Z,76.64
2023-05-08T00:28:52.800Z,76.70
2023-05-08T00:31:40.998Z,76.60
2023-05-08T00:34:29.940Z,76.82
2023-05-08T00:37:18.280Z,76.89
2023-05-08T00:40:09.690Z,77.53
2023-05-08T00:42:58.250Z,77.63
2023-05-08T00:45:46.560Z,77.71
2023-05-08T00:48:36.486Z,77.89
2023-05-08T00:51:34.589Z,77.87
2023-05-08T00:54:24.070Z,78.10
2023-05-08T00:57:12.831Z,78.17
2023-05-08T01:00:02.977Z,78.26
2023-05-08T01:02:51.137Z,78.36
2023-05-08T01:05:40.812Z,78.70
2023-05-08T01:08:30.322Z,79.00
2023-05-08T01:11:43.959Z,79.30
2023-05-08T01:14:57.855Z,79.42
2023-05-08T01:18:01.122Z,79.50
2023-05-08T01:21:16.352Z,80.10
2023-05-08T01:24:49.793Z,80.05
2023-05-08T01:28:34.375Z,80.46
2023-05-08T01:32:12.558Z,80.84
2023-05-08T01:35:27.090Z,81.45
2023-05-08T01:38:35.022Z,81.54
2023-05-08T01:41:30.829Z,81.86
2023-05-08T01:44:25.017Z,82.06
2023-05-08T01:47:16.031Z,82.15
2023-05-08T01:50:23.277Z,82.44
2023-05-08T01:53:23.562Z,82.26
2023-05-08T01:56:17.315Z,82.26
2023-05-08T01:59:08.452Z,82.32
2023-05-08T02:02:00.017Z,82.16
2023-05-08T02:04:49.558Z,82.20
2023-05-08T02:07:38.338Z,82.26
2023-05-08T02:10:29.081Z,82.23
2023-05-08T02:13:20.384Z,82.48
2023-05-08T02:16:12.396Z,82.77
2023-05-08T02:19:03.160Z,82.69
2023-05-08T02:21:52.023Z,82.55
2023-05-08T02:24:42.507Z,82.77
2023-05-08T02:27:31.597Z,82.61
2023-05-08T02:30:21.389Z,82.89
2023-05-08T02:33:11.927Z,82.82
2023-05-08T02:36:01.070Z,82.79
2023-05-08T02:38:56.176Z,82.85
2023-05-08T02:41:44.479Z,82.93
2023-05-08T02:44:33.564Z,83.07
2023-05-08T02:47:27.788Z,83.05
2023-05-08T02:50:33.530Z,83.26
2023-05-08T02:53:33.017Z,82.97
2023-05-08T02:56:49.257Z,83.09
2023-05-08T02:59:46.154Z,83.06
2023-05-08T03:02:51.054Z,83.10
2023-05-08T03:05:44.784Z,83.27
2023-05-08T03:08:35.437Z,83.41
2023-05-08T03:11:34.403Z,83.30
2023-05-08T03:14:27.394Z,83.32
2023-05-08T03:17:19.083Z,83.39
2023-05-08T03:20:11.108Z,83.25
2023-05-08T03:23:02.060Z,83.11
2023-05-08T03:25:56.233Z,83.00
2023-05-08T03:28:54.503Z,82.75
2023-05-08T03:31:51.988Z,82.23
2023-05-08T03:34:41.267Z,82.37
2023-05-08T03:37:29.868Z,82.13
2023-05-08T03:40:21.709Z,82.23
2023-05-08T03:43:11.805Z,82.61
2023-05-08T03:46:02.393Z,82.42
2023-05-08T03:48:53.405Z,82.25
2023-05-08T03:51:43.416Z,82.19
2023-05-08T03:54:31.674Z,81.85
2023-05-08T03:57:23.912Z,81.60
2023-05-08T04:00:25.494Z,81.37
2023-05-08T04:03:25.106Z,81.47
2023-05-08T04:06:30.714Z,81.34
2023-05-08T04:09:36.153Z,81.07
2023-05-08T04:13:03.247Z,81.00
2023-05-08T04:16:01.069Z,80.44
2023-05-08T04:18:54.571Z,80.22
2023-05-08T04:21:44.771Z,79.78
2023-05-08T04:24:37.500Z,79.47
2023-05-08T04:27:26.067Z,79.01
2023-05-08T04:30:15.837Z,78.55
2023-05-08T04:33:06.452Z,78.19
2023-05-08T04:35:55.175Z,77.56
2023-05-08T04:38:43.978Z,76.88
2023-05-08T04:41:33.230Z,76.06
2023-05-08T04:44:21.584Z,75.52
2023-05-08T04:47:09.899Z,74.38
2023-05-08T04:49:58.750Z,73.22
2023-05-08T04:52:49.859Z,72.56
2023-05-08T04:55:39.755Z,71.40
2023-05-08T04:58:29.228Z,70.05
2023-05-08T05:01:23.836Z,69.27
2023-05-08T05:04:12.585Z,67.98
2023-05-08T05:07:01.862Z,66.35
2023-05-08T05:09:52.510Z,64.28
2023-05-08T05:12:40.877Z,61.62
2023-05-08T05:15:29.884Z,55.26
2023-05-08T05:18:18.839Z,52.26
2023-05-08T05:21:07.315Z,47.64
2023-05-08T05:23:56.528Z,44.28
2023-05-08T05:26:45.125Z,40.72
2023-05-08T05:29:36.086Z,37.69
2023-05-08T05:32:24.836Z,35.07
2023-05-08T05:35:16.320Z,32.78
2023-05-08T05:38:06.579Z,30.62
2023-05-08T05:40:56.039Z,29.06
2023-05-08T05:43:45.372Z,27.86
2023-05-08T05:46:34.453Z,26.59
2023-05-08T05:49:24.349Z,24.86
2023-05-08T05:52:14.709Z,24.87
2023-05-08T05:55:03.246Z,23.70
2023-05-08T05:57:51.658Z,23.14
2023-05-08T06:00:40.325Z,22.28
2023-05-08T06:03:29.023Z,22.61
2023-05-08T06:06:17.705Z,22.37
2023-05-08T06:09:07.121Z,21.22
2023-05-08T06:11:57.923Z,20.58
2023-05-08T06:14:46.483Z,20.57
2023-05-08T06:17:34.454Z,20.35
2023-05-08T06:20:26.333Z,20.77
2023-05-08T06:23:14.804Z,20.11
2023-05-08T06:26:03.597Z,20.28
2023-05-08T06:28:52.139Z,20.31
2023-05-08T06:31:40.428Z,20.31
2023-05-08T06:34:28.389Z,20.55
2023-05-08T06:37:16.525Z,20.79
2023-05-08T06:40:12.074Z,20.28
2023-05-08T06:43:01.245Z,19.79
2023-05-08T06:45:49.634Z,19.18
2023-05-08T06:48:38.928Z,18.49
2023-05-08T06:51:27.498Z,17.86
2023-05-08T06:54:20.452Z,17.60
2023-05-08T06:57:11.117Z,17.52
2023-05-08T07:00:06.163Z,17.21
2023-05-08T07:02:54.513Z,16.81
2023-05-08T07:05:49.705Z,16.86
2023-05-08T07:08:40.403Z,16.08
2023-05-08T07:11:29.391Z,15.98
2023-05-08T07:14:18.639Z,16.03
2023-05-08T07:17:07.079Z,15.69
2023-05-08T07:19:56.241Z,15.09
2023-05-08T07:22:44.948Z,14.95
2023-05-08T07:25:32.439Z,12.89
2023-05-08T07:28:21.250Z,12.60
2023-05-08T07:31:12.047Z,12.64
2023-05-08T07:34:01.135Z,13.10
2023-05-08T07:36:49.526Z,13.67
2023-05-08T07:39:37.494Z,13.08
2023-05-08T07:42:26.919Z,13.90
2023-05-08T07:45:17.209Z,13.73
2023-05-08T07:48:09.157Z,12.78
2023-05-08T07:50:56.995Z,12.71
2023-05-08T07:53:45.367Z,12.92
2023-05-08T07:56:33.658Z,13.53
2023-05-08T07:59:21.886Z,14.44
2023-05-08T08:02:10.388Z,13.35
2023-05-08T08:04:59.671Z,13.09
2023-05-08T08:07:47.583Z,13.55
2023-05-08T08:10:37.135Z,12.95
2023-05-08T08:13:25.033Z,13.02
2023-05-08T08:16:13.624Z,13.01
2023-05-08T08:19:01.970Z,12.61
2023-05-08T08:21:49.966Z,13.36
2023-05-08T08:24:38.631Z,13.19
2023-05-08T08:27:26.545Z,12.86
2023-05-08T08:30:18.354Z,12.57
2023-05-08T08:33:07.468Z,12.93
2023-05-08T08:35:55.812Z,13.73
2023-05-08T08:38:44.201Z,13.43
2023-05-08T08:41:33.192Z,12.99
2023-05-08T08:44:21.366Z,12.33
2023-05-08T08:47:13.052Z,12.79
2023-05-08T08:50:04.036Z,13.18
2023-05-08T08:53:27.405Z,13.66
2023-05-08T08:56:17.076Z,14.04
2023-05-08T08:59:06.824Z,12.59
2023-05-08T09:02:06.538Z,13.05
2023-05-08T09:04:54.691Z,13.88
2023-05-08T09:07:44.146Z,13.90
2023-05-08T09:10:31.946Z,13.93
2023-05-08T09:13:23.038Z,14.28
2023-05-08T09:16:11.404Z,13.83
2023-05-08T09:19:01.182Z,13.75
2023-05-08T09:21:49.593Z,12.85
2023-05-08T09:24:58.071Z,13.16
2023-05-08T09:27:48.821Z,13.69
2023-05-08T09:30:52.965Z,13.94
2023-05-08T09:33:46.205Z,13.74
2023-05-08T09:36:35.272Z,13.52
2023-05-08T09:39:26.093Z,13.56
2023-05-08T09:42:14.613Z,13.21
2023-05-08T09:45:03.041Z,13.28
2023-05-08T09:47:51.208Z,13.22
2023-05-08T09:50:41.029Z,12.82
2023-05-08T09:53:34.510Z,13.27
2023-05-08T09:56:41.575Z,12.85
2023-05-08T09:59:33.872Z,13.76
2023-05-08T10:02:22.679Z,13.90
2023-05-08T10:05:32.377Z,13.44
2023-05-08T10:08:23.729Z,13.18
2023-05-08T10:11:20.359Z,13.09
2023-05-08T10:14:09.473Z,12.84
2023-05-08T10:17:00.889Z,13.31
2023-05-08T10:19:54.127Z,12.75
2023-05-08T10:22:44.614Z,13.36
2023-05-08T10:25:35.679Z,13.44
2023-05-08T10:29:01.895Z,13.30
2023-05-08T10:31:58.700Z,13.45
2023-05-08T10:34:53.071Z,13.39
2023-05-08T10:37:42.637Z,13.97
2023-05-08T10:40:30.940Z,13.99
2023-05-08T10:43:20.878Z,13.85
2023-05-08T10:46:49.111Z,13.76
2023-05-08T10:50:13.173Z,13.54
2023-05-08T10:54:01.696Z,13.47
2023-05-08T10:56:50.033Z,12.95
2023-05-08T10:59:39.087Z,12.77
2023-05-08T11:02:32.914Z,12.98
2023-05-08T11:05:21.186Z,13.16
2023-05-08T11:08:20.172Z,12.62
2023-05-08T11:11:34.163Z,12.94
2023-05-08T11:14:23.933Z,13.29
2023-05-08T11:17:14.650Z,13.46
2023-05-08T11:20:06.050Z,13.44
2023-05-08T11:22:54.220Z,14.44
2023-05-08T11:25:44.573Z,14.60
2023-05-08T11:28:59.105Z,14.87
2023-05-08T11:31:52.348Z,15.54
2023-05-08T11:34:43.760Z,16.16
2023-05-08T11:37:34.479Z,16.67
2023-05-08T11:40:45.317Z,17.03
2023-05-08T11:43:55.509Z,17.78
2023-05-08T11:46:52.612Z,17.89
2023-05-08T11:49:40.851Z,18.88
2023-05-08T11:52:33.984Z,19.10
2023-05-08T11:55:22.492Z,19.35
2023-05-08T11:58:15.406Z,19.86
2023-05-08T12:01:03.900Z,20.91
2023-05-08T12:04:06.364Z,21.12
2023-05-08T12:06:58.999Z,21.47
2023-05-08T12:09:47.669Z,22.08
2023-05-08T12:12:41.800Z,22.02
2023-05-08T12:15:30.055Z,22.34
2023-05-08T12:18:18.662Z,23.09
2023-05-08T12:21:09.536Z,22.92
2023-05-08T12:23:58.342Z,22.95
2023-05-08T12:26:50.661Z,23.07
2023-05-08T12:29:39.480Z,23.04
2023-05-08T12:32:30.108Z,23.38
2023-05-08T12:35:21.669Z,23.74
2023-05-08T12:38:12.195Z,23.96
2023-05-08T12:41:04.590Z,23.39
2023-05-08T12:43:52.595Z,24.02
2023-05-08T12:46:54.229Z,24.04
2023-05-08T12:49:43.760Z,24.04
2023-05-08T12:52:32.758Z,23.87
2023-05-08T12:55:26.603Z,24.28
2023-05-08T12:58:15.659Z,24.16
2023-05-08T13:01:14.389Z,23.74
2023-05-08T13:04:03.302Z,24.09
2023-05-08T13:06:56.783Z,23.75
2023-05-08T13:10:05.444Z,23.69
2023-05-08T13:12:53.587Z,23.92
2023-05-08T13:15:43.110Z,23.46
2023-05-08T13:18:32.112Z,23.86
2023-05-08T13:21:21.293Z,23.93
2023-05-08T13:24:09.516Z,24.19
2023-05-08T13:27:01.415Z,24.47
2023-05-08T13:29:49.595Z,24.35
2023-05-08T13:32:38.149Z,24.79
2023-05-08T13:35:28.594Z,24.74
2023-05-08T13:38:16.450Z,25.20
2023-05-08T13:41:04.897Z,25.20
2023-05-08T13:43:53.221Z,25.04
2023-05-08T13:46:42.020Z,25.58
2023-05-08T13:49:30.823Z,25.99
2023-05-08T13:52:23.013Z,25.86
2023-05-08T13:55:14.657Z,25.59
2023-05-08T13:58:03.230Z,25.72
2023-05-08T14:00:51.211Z,26.23
2023-05-08T14:03:39.587Z,26.32
2023-05-08T14:06:27.838Z,26.12
2023-05-08T14:09:16.290Z,26.36
2023-05-08T14:12:04.926Z,26.38
2023-05-08T14:14:54.183Z,26.98
2023-05-08T14:18:06.986Z,27.37
2023-05-08T14:20:57.433Z,27.96
2023-05-08T14:23:46.290Z,27.69
2023-05-08T14:26:36.028Z,27.78
2023-05-08T14:29:24.125Z,27.24
2023-05-08T14:32:12.108Z,27.46
2023-05-08T14:35:00.129Z,27.77
2023-05-08T14:37:48.795Z,28.10
2023-05-08T14:40:37.349Z,27.87
2023-05-08T14:43:25.566Z,27.90
2023-05-08T14:46:13.818Z,28.17
2023-05-08T14:49:02.039Z,28.45
2023-05-08T14:51:50.792Z,28.56
2023-05-08T14:54:39.915Z,28.35
2023-05-08T14:57:28.342Z,28.70
2023-05-08T15:00:17.689Z,28.73
2023-05-08T15:03:06.649Z,28.70
2023-05-08T15:05:54.959Z,28.84
2023-05-08T15:08:44.156Z,28.82
2023-05-08T15:11:33.304Z,28.17
2023-05-08T15:14:21.335Z,28.50
2023-05-08T15:17:09.399Z,28.45
2023-05-08T15:19:58.528Z,27.48
2023-05-08T15:22:46.864Z,27.80
2023-05-08T15:25:36.230Z,28.46
2023-05-08T15:28:25.077Z,28.85
2023-05-08T15:31:14.299Z,28.73
2023-05-08T15:34:02.900Z,28.57
2023-05-08T15:36:52.264Z,28.67
2023-05-08T15:39:40.414Z,28.60
2023-05-08T15:42:29.422Z,29.05
2023-05-08T15:45:17.517Z,29.76
2023-05-08T15:48:06.538Z,29.74
2023-05-08T15:50:54.744Z,30.03
2023-05-08T15:53:43.161Z,30.38
2023-05-08T15:56:32.920Z,30.17
2023-05-08T15:59:21.041Z,29.87
2023-05-08T16:02:10.023Z,29.43
2023-05-08T16:04:58.344Z,29.84
2023-05-08T16:07:50.614Z,29.96
2023-05-08T16:10:38.868Z,30.17
2023-05-08T16:13:27.495Z,30.11
2023-05-08T16:16:15.685Z,30.51
2023-05-08T16:19:06.589Z,30.63
2023-05-08T16:21:56.163Z,30.72
2023-05-08T16:24:44.678Z,31.04
2023-05-08T16:27:33.546Z,31.43
2023-05-08T16:30:21.699Z,31.21
2023-05-08T16:33:12.308Z,31.69
2023-05-08T16:36:00.539Z,31.66
2023-05-08T16:38:48.445Z,31.70
2023-05-08T16:41:36.694Z,31.65
2023-05-08T16:44:24.774Z,31.99
2023-05-08T16:47:12.939Z,32.52
2023-05-08T16:50:01.371Z,32.77
2023-05-08T16:52:49.086Z,33.04
2023-05-08T16:55:38.562Z,33.29
2023-05-08T16:58:29.132Z,33.89
2023-05-08T17:01:18.986Z,34.22
2023-05-08T17:04:07.242Z,34.43
2023-05-08T17:07:00.138Z,34.27
2023-05-08T17:09:55.588Z,33.78
2023-05-08T17:12:44.964Z,33.94
2023-05-08T17:15:33.770Z,34.46
2023-05-08T17:18:22.242Z,34.50
2023-05-08T17:21:11.728Z,34.43
2023-05-08T17:24:02.356Z,34.62
2023-05-08T17:26:50.991Z,35.05
2023-05-08T17:29:40.004Z,35.24
2023-05-08T17:32:30.092Z,35.64
2023-05-08T17:35:18.719Z,35.96
2023-05-08T17:38:11.906Z,36.38
2023-05-08T17:41:00.662Z,36.73
2023-05-08T17:43:49.038Z,37.31
2023-05-08T17:46:38.219Z,37.21
2023-05-08T17:49:28.003Z,37.22
2023-05-08T17:52:16.028Z,37.21
2023-05-08T17:55:05.673Z,37.65
2023-05-08T17:57:54.429Z,38.31
2023-05-08T18:00:43.599Z,38.80
2023-05-08T18:03:32.571Z,39.42
2023-05-08T18:06:21.334Z,39.97
2023-05-08T18:09:09.828Z,40.48
2023-05-08T18:12:02.462Z,40.77
2023-05-08T18:14:54.607Z,41.24
2023-05-08T18:17:46.241Z,41.52
2023-05-08T18:20:37.589Z,41.30
2023-05-08T18:23:26.998Z,42.06
2023-05-08T18:26:18.286Z,42.61
2023-05-08T18:29:09.319Z,42.38
2023-05-08T18:31:59.688Z,43.29
2023-05-08T18:34:48.374Z,43.18
2023-05-08T18:37:36.924Z,43.57
2023-05-08T18:40:25.167Z,44.22
2023-05-08T18:43:20.651Z,44.58
2023-05-08T18:46:15.292Z,44.50
2023-05-08T18:49:28.581Z,44.87
2023-05-08T18:52:19.645Z,45.28
2023-05-08T18:55:13.008Z,45.51
2023-05-08T18:58:06.782Z,45.86
2023-05-08T19:00:59.404Z,46.16
2023-05-08T19:03:52.033Z,46.34
2023-05-08T19:06:44.253Z,46.69
2023-05-08T19:09:34.752Z,47.31
2023-05-08T19:12:28.855Z,47.52
2023-05-08T19:15:22.151Z,48.11
2023-05-08T19:18:11.779Z,48.15
2023-05-08T19:21:05.164Z,48.43
2023-05-08T19:23:54.390Z,48.92
2023-05-08T19:26:45.784Z,49.63
2023-05-08T19:29:35.548Z,50.12
2023-05-08T19:32:25.227Z,50.58
2023-05-08T19:35:14.296Z,51.65
2023-05-08T19:38:02.952Z,52.18
2023-05-08T19:40:57.081Z,52.17
2023-05-08T19:43:46.156Z,52.85
2023-05-08T19:46:37.335Z,53.06
2023-05-08T19:49:27.374Z,53.81
2023-05-08T19:52:17.996Z,53.79
2023-05-08T19:55:07.339Z,54.34
2023-05-08T19:57:56.146Z,54.67
2023-05-08T20:00:50.982Z,55.17
2023-05-08T20:03:41.858Z,54.84
2023-05-08T20:06:32.495Z,54.99
2023-05-08T20:09:20.492Z,55.58
2023-05-08T20:12:11.500Z,56.08
2023-05-08T20:15:01.967Z,55.83
2023-05-08T20:17:52.941Z,55.98
2023-05-08T20:20:41.979Z,56.85
2023-05-08T20:23:30.446Z,57.00
2023-05-08T20:26:18.662Z,57.66
2023-05-08T20:29:08.685Z,57.58
2023-05-08T20:31:57.548Z,58.20
2023-05-08T20:34:46.408Z,58.33
2023-05-08T20:37:35.294Z,58.37
2023-05-08T20:40:25.472Z,58.57
2023-05-08T20:43:17.419Z,59.17
2023-05-08T20:46:08.418Z,59.81
2023-05-08T20:48:59.580Z,59.82
2023-05-08T20:51:47.424Z,60.64
2023-05-08T20:54:36.718Z,60.77
2023-05-08T20:57:26.192Z,60.87
2023-05-08T21:00:15.139Z,61.44
2023-05-08T21:03:05.853Z,61.35
2023-05-08T21:05:56.008Z,61.21
2023-05-08T21:08:44.563Z,61.58
2023-05-08T21:11:36.752Z,62.27
2023-05-08T21:14:24.922Z,62.74
2023-05-08T21:17:14.159Z,63.05
2023-05-08T21:20:02.846Z,63.35
2023-05-08T21:22:51.244Z,63.39
2023-05-08T21:25:42.027Z,63.56
2023-05-08T21:28:30.775Z,64.22
2023-05-08T21:31:19.582Z,64.06
2023-05-08T21:34:07.675Z,64.28
2023-05-08T21:36:57.219Z,65.18
2023-05-08T21:39:45.477Z,65.74
2023-05-08T21:42:33.714Z,65.97
2023-05-08T21:45:22.510Z,65.60
2023-05-08T21:48:10.842Z,65.62
2023-05-08T21:51:01.704Z,65.95
2023-05-08T21:53:49.875Z,66.25
2023-05-08T21:56:40.274Z,67.01
2023-05-08T21:59:28.840Z,66.79
2023-05-08T22:02:16.893Z,67.12
2023-05-08T22:05:07.698Z,67.12
2023-05-08T22:07:56.020Z,67.35
2023-05-08T22:10:44.485Z,67.57
2023-05-08T22:13:33.234Z,68.13
2023-05-08T22:16:21.886Z,68.65
2023-05-08T22:19:11.737Z,68.87
2023-05-08T22:22:00.257Z,68.85
2023-05-08T22:24:50.001Z,68.90
2023-05-08T22:27:38.317Z,69.24
2023-05-08T22:30:26.306Z,69.36
2023-05-08T22:33:14.895Z,69.32
2023-05-08T22:36:03.086Z,69.46
2023-05-08T22:38:54.997Z,69.44
2023-05-08T22:41:44.468Z,69.63
2023-05-08T22:45:52.382Z,69.88
2023-05-08T22:48:47.364Z,69.72
2023-05-08T22:51:36.278Z,69.38
2023-05-08T22:54:24.367Z,69.60
2023-05-08T22:57:12.192Z,69.67
2023-05-08T23:00:00.647Z,69.60
2023-05-08T23:02:51.306Z,69.54
2023-05-08T23:05:39.476Z,69.30
2023-05-08T23:08:27.996Z,69.89
2023-05-08T23:11:16.779Z,70.12
2023-05-08T23:14:04.667Z,70.55
2023-05-08T23:16:54.042Z,70.61
2023-05-08T23:19:42.962Z,70.41
2023-05-08T23:22:31.194Z,70.10
2023-05-08T23:25:19.919Z,70.08
2023-05-08T23:28:08.081Z,70.35
2023-05-08T23:30:56.399Z,70.18
2023-05-08T23:33:44.439Z,70.51
2023-05-08T23:36:33.049Z,70.34
2023-05-08T23:39:20.979Z,70.25
2023-05-08T23:42:10.127Z,70.20
2023-05-08T23:44:58.096Z,69.95
2023-05-08T23:47:46.684Z,70.28
2023-05-08T23:50:35.775Z,70.19
2023-05-08T23:53:24.245Z,70.22
2023-05-08T23:56:13.761Z,70.01
2023-05-08T23:59:02.436Z,69.49
